createdAt,value
2023-02-06T00:02:10.493Z,68.00
2023-02-06T00:05:15.218Z,77.60
2023-02-06T00:08:18.655Z,77.00
2023-02-06T00:11:23.871Z,75.20
2023-02-06T00:14:27.613Z,81.40
2023-02-06T00:17:36.534Z,80.10
2023-02-06T00:20:42.992Z,67.40
2023-02-06T00:23:48.155Z,72.20
2023-02-06T00:27:00.664Z,73.30
2023-02-06T00:30:05.975Z,74.60
2023-02-06T00:33:09.385Z,86.10
2023-02-06T00:36:32.686Z,76.40
2023-02-06T00:39:37.588Z,82.40
2023-02-06T00:42:44.569Z,73.10
2023-02-06T00:45:53.635Z,69.10
2023-02-06T00:49:05.013Z,70.20
2023-02-06T00:52:09.790Z,69.00
2023-02-06T00:55:13.922Z,72.10
2023-02-06T00:58:17.439Z,81.80
2023-02-06T01:01:22.294Z,76.90
2023-02-06T01:04:27.994Z,74.80
2023-02-06T01:07:31.955Z,80.30
2023-02-06T01:10:37.556Z,70.00
2023-02-06T01:13:41.917Z,73.70
2023-02-06T01:16:49.762Z,79.50
2023-02-06T01:20:04.481Z,82.10
2023-02-06T01:23:19.911Z,76.70
2023-02-06T01:26:28.302Z,78.30
2023-02-06T01:29:38.092Z,76.00
2023-02-06T01:32:51.356Z,75.70
2023-02-06T01:36:15.226Z,74.30
2023-02-06T01:39:19.891Z,64.40
2023-02-06T01:42:26.796Z,67.90
2023-02-06T01:45:38.238Z,70.50
2023-02-06T01:49:02.430Z,76.90
2023-02-06T01:52:31.687Z,65.10
2023-02-06T01:55:47.111Z,74.10
2023-02-06T01:59:14.089Z,74.20
2023-02-06T02:02:22.653Z,66.80
2023-02-06T02:05:27.399Z,69.70
2023-02-06T02:08:49.017Z,69.20
2023-02-06T02:11:53.858Z,68.90
2023-02-06T02:15:00.161Z,69.20
2023-02-06T02:18:14.643Z,60.50
2023-02-06T02:21:36.397Z,65.20
2023-02-06T02:25:24.805Z,65.70
2023-02-06T02:29:00.103Z,71.00
2023-02-06T02:32:53.369Z,63.70
2023-02-06T02:36:05.069Z,56.20
2023-02-06T02:39:57.384Z,57.60
2023-02-06T02:43:52.681Z,62.30
2023-02-06T02:47:00.986Z,54.70
2023-02-06T02:50:10.396Z,61.20
2023-02-06T02:53:21.902Z,58.90
2023-02-06T02:56:45.146Z,54.60
2023-02-06T02:59:50.941Z,59.00
2023-02-06T03:03:00.640Z,54.90
2023-02-06T03:06:49.328Z,64.10
2023-02-06T03:10:07.295Z,55.30
2023-02-06T03:13:31.930Z,67.00
2023-02-06T03:17:11.851Z,55.90
2023-02-06T03:20:17.354Z,53.80
2023-02-06T03:23:26.122Z,63.40
2023-02-06T03:26:53.389Z,56.50
2023-02-06T03:30:03.146Z,66.70
2023-02-06T03:33:12.022Z,62.20
2023-02-06T03:36:18.440Z,66.50
2023-02-06T03:39:27.981Z,64.30
2023-02-06T03:42:53.655Z,58.90
2023-02-06T03:46:20.314Z,51.50
2023-02-06T03:49:31.911Z,57.90
2023-02-06T03:52:45.643Z,52.20
2023-02-06T03:55:56.893Z,63.80
2023-02-06T03:59:01.848Z,61.60
2023-02-06T04:02:06.180Z,59.50
2023-02-06T04:05:10.358Z,69.90
2023-02-06T04:08:14.292Z,68.30
2023-02-06T04:11:39.559Z,69.30
2023-02-06T04:14:51.740Z,77.10
2023-02-06T04:18:01.792Z,69.50
2023-02-06T04:21:07.222Z,69.10
2023-02-06T04:24:31.991Z,75.00
2023-02-06T04:27:42.018Z,65.80
2023-02-06T04:30:48.989Z,67.60
2023-02-06T04:37:05.856Z,71.80
2023-02-06T04:40:13.262Z,71.80
2023-02-06T04:43:17.022Z,71.10
2023-02-06T04:46:20.227Z,72.40
2023-02-06T04:49:39.914Z,88.20
2023-02-06T04:52:53.016Z,86.60
2023-02-06T04:56:15.365Z,78.50
2023-02-06T04:59:35.489Z,72.00
2023-02-06T05:02:54.123Z,67.20
2023-02-06T05:06:10.389Z,64.40
2023-02-06T05:09:13.460Z,72.20
2023-02-06T05:12:36.536Z,71.70
2023-02-06T05:16:11.750Z,70.10
2023-02-06T05:19:43.653Z,87.00
2023-02-06T05:23:16.465Z,87.30
2023-02-06T05:26:41.525Z,121.90
2023-02-06T05:30:07.759Z,114.10
2023-02-06T05:33:33.706Z,85.00
2023-02-06T05:37:04.247Z,82.10
2023-02-06T05:40:09.770Z,79.80
2023-02-06T05:43:12.638Z,85.30
2023-02-06T05:46:28.481Z,87.10
2023-02-06T05:49:51.597Z,69.90
2023-02-06T05:53:02.146Z,70.90
2023-02-06T05:56:12.644Z,84.00
2023-02-06T05:59:36.544Z,68.90
2023-02-06T06:02:55.096Z,68.40
2023-02-06T06:06:08.397Z,78.10
2023-02-06T06:09:31.735Z,74.90
2023-02-06T06:13:03.518Z,72.10
2023-02-06T06:16:20.083Z,76.10
2023-02-06T06:19:29.618Z,72.40
2023-02-06T06:22:37.166Z,97.40
2023-02-06T06:26:01.785Z,115.80
2023-02-06T06:29:04.798Z,118.90
2023-02-06T06:32:10.667Z,117.80
2023-02-06T06:35:14.049Z,126.00
2023-02-06T06:38:34.571Z,101.10
2023-02-06T06:41:42.068Z,106.50
2023-02-06T06:45:00.358Z,113.90
2023-02-06T06:48:23.594Z,125.70
2023-02-06T06:51:46.222Z,137.80
2023-02-06T06:54:51.952Z,129.90
2023-02-06T06:58:11.565Z,129.40
2023-02-06T07:01:49.448Z,133.00
2023-02-06T07:04:55.374Z,131.60
2023-02-06T07:07:59.171Z,135.90
2023-02-06T07:11:05.005Z,67.60
2023-02-06T07:14:09.189Z,45.50
2023-02-06T07:17:14.272Z,36.70
2023-02-06T07:20:26.752Z,58.40
2023-02-06T07:23:33.917Z,55.10
2023-02-06T07:26:36.958Z,65.80
2023-02-06T07:29:40.028Z,93.80
2023-02-06T07:32:47.463Z,100.10
2023-02-06T07:35:52.693Z,105.00
2023-02-06T07:39:02.385Z,102.40
2023-02-06T07:42:06.668Z,108.40
2023-02-06T07:45:30.069Z,98.50
2023-02-06T07:48:34.656Z,105.40
2023-02-06T07:51:40.434Z,82.70
2023-02-06T07:54:45.566Z,87.80
2023-02-06T07:57:56.398Z,64.90
2023-02-06T08:01:06.360Z,64.20
2023-02-06T08:04:13.501Z,85.20
2023-02-06T08:07:26.080Z,87.40
2023-02-06T08:10:33.283Z,71.00
2023-02-06T08:14:05.138Z,65.70
2023-02-06T08:17:08.157Z,76.80
2023-02-06T08:20:17.169Z,90.10
2023-02-06T08:23:24.610Z,92.00
2023-02-06T08:26:30.343Z,84.80
2023-02-06T08:29:44.283Z,83.20
2023-02-06T08:33:08.430Z,73.80
2023-02-06T08:36:28.123Z,65.90
2023-02-06T08:39:32.774Z,71.10
2023-02-06T08:42:56.335Z,70.90
2023-02-06T08:46:02.555Z,63.10
2023-02-06T08:52:13.393Z,54.60
2023-02-06T08:55:17.153Z,54.80
2023-02-06T08:58:25.680Z,45.40
2023-02-06T09:01:32.119Z,43.40
2023-02-06T09:04:37.893Z,48.70
2023-02-06T09:07:42.735Z,44.90
2023-02-06T09:10:47.727Z,46.50
2023-02-06T09:13:54.605Z,48.00
2023-02-06T09:16:58.557Z,44.60
2023-02-06T09:20:02.637Z,48.10
2023-02-06T09:23:13.830Z,39.20
2023-02-06T09:26:20.526Z,35.70
2023-02-06T09:29:27.191Z,39.80
2023-02-06T09:32:30.821Z,41.10
2023-02-06T09:35:35.240Z,46.80
2023-02-06T09:38:51.970Z,49.50
2023-02-06T09:42:11.312Z,47.60
2023-02-06T09:45:22.939Z,40.90
2023-02-06T09:48:32.975Z,45.80
2023-02-06T09:52:16.796Z,46.90
2023-02-06T09:56:07.071Z,44.60
2023-02-06T09:59:43.026Z,38.20
2023-02-06T10:03:30.137Z,41.00
2023-02-06T10:06:54.396Z,31.90
2023-02-06T10:11:05.100Z,27.40
2023-02-06T10:14:55.134Z,30.40
2023-02-06T10:18:12.925Z,29.20
2023-02-06T10:21:39.394Z,25.90
2023-02-06T10:25:02.186Z,23.10
2023-02-06T10:28:29.189Z,24.20
2023-02-06T10:32:02.492Z,25.60
2023-02-06T10:35:44.045Z,21.20
2023-02-06T10:39:08.083Z,18.60
2023-02-06T10:42:29.368Z,20.40
2023-02-06T10:45:43.909Z,28.00
2023-02-06T10:48:54.400Z,28.80
2023-02-06T10:52:20.331Z,18.50
2023-02-06T10:55:36.761Z,17.80
2023-02-06T10:58:51.648Z,21.50
2023-02-06T11:02:19.418Z,11.70
2023-02-06T11:05:50.505Z,42.30
2023-02-06T11:08:58.099Z,40.10
2023-02-06T11:12:03.914Z,28.30
2023-02-06T11:15:49.901Z,19.50
2023-02-06T11:19:16.126Z,22.70
2023-02-06T11:22:47.727Z,19.20
2023-02-06T11:26:15.379Z,20.40
2023-02-06T11:29:45.794Z,18.30
2023-02-06T11:33:17.158Z,17.90
2023-02-06T11:36:43.853Z,20.90
2023-02-06T11:39:49.997Z,17.60
2023-02-06T11:43:16.360Z,25.20
2023-02-06T11:46:35.374Z,19.70
2023-02-06T11:49:47.950Z,20.40
2023-02-06T11:53:11.362Z,23.10
2023-02-06T11:56:24.235Z,21.40
2023-02-06T11:59:56.246Z,20.20
2023-02-06T12:03:03.751Z,24.20
2023-02-06T12:06:18.971Z,20.70
2023-02-06T12:09:50.846Z,21.10
2023-02-06T12:13:17.389Z,24.30
2023-02-06T12:16:25.916Z,21.20
2023-02-06T12:19:58.813Z,25.40
2023-02-06T12:23:53.191Z,28.40
2023-02-06T12:27:15.209Z,24.30
2023-02-06T12:30:58.118Z,32.70
2023-02-06T12:34:22.198Z,24.00
2023-02-06T12:37:52.356Z,15.00
2023-02-06T12:41:33.019Z,22.40
2023-02-06T12:44:57.190Z,14.00
2023-02-06T12:48:36.782Z,22.20
2023-02-06T12:52:39.814Z,13.40
2023-02-06T12:56:13.647Z,15.70
2023-02-06T12:59:43.719Z,15.70
2023-02-06T13:03:32.917Z,11.90
2023-02-06T13:07:27.488Z,16.20
2023-02-06T13:10:31.303Z,14.30
2023-02-06T13:13:47.576Z,15.40
2023-02-06T13:17:19.042Z,19.70
2023-02-06T13:21:54.255Z,16.10
2023-02-06T13:25:06.979Z,16.40
2023-02-06T13:28:42.396Z,15.90
2023-02-06T13:32:12.622Z,24.40
2023-02-06T13:35:54.941Z,21.60
2023-02-06T13:39:36.403Z,18.40
2023-02-06T13:43:36.284Z,17.70
2023-02-06T13:47:44.965Z,19.50
2023-02-06T13:50:56.461Z,22.10
2023-02-06T13:54:59.103Z,15.50
2023-02-06T13:58:41.496Z,13.30
2023-02-06T14:02:50.141Z,18.20
2023-02-06T14:15:10.540Z,26.90
2023-02-06T14:18:47.477Z,25.50
2023-02-06T14:22:42.583Z,16.60
2023-02-06T14:27:09.166Z,16.70
2023-02-06T14:31:21.935Z,17.70
2023-02-06T14:35:10.028Z,13.80
2023-02-06T14:39:22.952Z,13.60
2023-02-06T14:43:20.501Z,13.30
2023-02-06T14:46:43.735Z,8.60
2023-02-06T14:50:08.787Z,6.10
2023-02-06T14:54:01.195Z,12.40
2023-02-06T14:57:24.206Z,8.60
2023-02-06T15:00:48.287Z,10.20
2023-02-06T15:04:23.723Z,17.60
2023-02-06T15:07:38.707Z,15.50
2023-02-06T15:10:59.401Z,11.10
2023-02-06T15:15:44.572Z,26.30
2023-02-06T15:19:30.952Z,13.30
2023-02-06T15:23:32.847Z,13.50
2023-02-06T15:27:53.520Z,28.40
2023-02-06T15:31:23.461Z,16.40
2023-02-06T15:35:09.186Z,6.80
2023-02-06T15:38:32.613Z,18.30
2023-02-06T15:42:03.732Z,22.40
2023-02-06T15:45:16.446Z,22.80
2023-02-06T15:49:19.099Z,5.90
2023-02-06T15:52:42.400Z,10.30
2023-02-06T15:56:29.343Z,21.10
2023-02-06T16:00:23.928Z,23.90
2023-02-06T16:03:37.223Z,24.00
2023-02-06T16:07:32.668Z,21.30
2023-02-06T16:11:56.826Z,8.40
2023-02-06T16:15:39.107Z,28.50
2023-02-06T16:19:42.665Z,31.10
2023-02-06T16:23:47.321Z,27.40
2023-02-06T16:27:18.933Z,19.00
2023-02-06T16:31:34.558Z,30.20
2023-02-06T16:34:55.765Z,13.90
2023-02-06T16:38:19.563Z,12.10
2023-02-06T16:41:54.226Z,14.30
2023-02-06T16:45:41.315Z,18.40
2023-02-06T16:49:19.312Z,15.60
2023-02-06T16:53:18.782Z,29.40
2023-02-06T16:56:42.590Z,33.90
2023-02-06T17:00:08.938Z,31.30
2023-02-06T17:03:34.162Z,24.80
2023-02-06T17:07:13.659Z,57.80
2023-02-06T17:10:38.831Z,39.30
2023-02-06T17:14:05.807Z,24.10
2023-02-06T17:17:31.006Z,55.40
2023-02-06T17:20:59.664Z,45.20
2023-02-06T17:24:27.329Z,50.20
2023-02-06T17:28:06.766Z,23.60
2023-02-06T17:31:33.811Z,8.60
2023-02-06T17:34:57.989Z,22.00
2023-02-06T17:38:24.012Z,51.80
2023-02-06T17:41:47.270Z,46.10
2023-02-06T17:45:21.658Z,57.90
2023-02-06T17:49:05.053Z,45.30
2023-02-06T17:52:25.284Z,45.10
2023-02-06T17:55:51.107Z,55.50
2023-02-06T17:59:20.914Z,41.40
2023-02-06T18:03:03.849Z,56.70
2023-02-06T18:06:47.808Z,63.30
2023-02-06T18:10:19.561Z,66.60
2023-02-06T18:13:49.359Z,59.90
2023-02-06T18:17:31.380Z,61.70
2023-02-06T18:20:58.003Z,51.10
2023-02-06T18:24:29.822Z,47.80
2023-02-06T18:27:55.217Z,51.20
2023-02-06T18:35:07.643Z,44.70
2023-02-06T18:38:51.922Z,43.70
2023-02-06T18:42:35.328Z,46.40
2023-02-06T18:46:02.052Z,44.00
2023-02-06T18:49:28.150Z,75.50
2023-02-06T18:52:52.181Z,80.60
2023-02-06T18:56:33.937Z,86.10
2023-02-06T19:00:04.004Z,91.10
2023-02-06T19:03:33.613Z,90.50
2023-02-06T19:06:53.570Z,80.20
2023-02-06T19:10:39.755Z,76.00
2023-02-06T19:14:06.169Z,69.50
2023-02-06T19:17:49.980Z,66.80
2023-02-06T19:25:14.711Z,75.50
2023-02-06T19:28:39.583Z,74.50
2023-02-06T19:32:04.295Z,79.10
2023-02-06T19:35:23.699Z,62.40
2023-02-06T19:38:49.416Z,64.80
2023-02-06T19:42:19.947Z,67.50
2023-02-06T19:45:40.416Z,61.10
2023-02-06T19:49:32.210Z,67.50
2023-02-06T19:52:59.143Z,69.50
2023-02-06T19:56:56.388Z,68.20
2023-02-06T20:00:30.329Z,77.00
2023-02-06T20:03:48.706Z,72.70
2023-02-06T20:07:13.779Z,60.20
2023-02-06T20:10:38.410Z,75.70
2023-02-06T20:14:05.430Z,67.70
2023-02-06T20:17:30.740Z,67.50
2023-02-06T20:20:50.013Z,78.80
2023-02-06T20:24:34.256Z,57.40
2023-02-06T20:28:14.088Z,17.30
2023-02-06T20:31:41.031Z,58.50
2023-02-06T20:35:31.959Z,59.50
2023-02-06T20:38:57.039Z,62.90
2023-02-06T20:42:28.847Z,44.10
2023-02-06T20:45:53.004Z,57.10
2023-02-06T20:49:43.422Z,47.80
2023-02-06T20:53:08.769Z,56.30
2023-02-06T20:56:35.640Z,56.30
2023-02-06T20:59:59.757Z,69.60
2023-02-06T21:03:25.653Z,62.10
2023-02-06T21:06:53.766Z,51.70
2023-02-06T21:10:36.704Z,46.70
2023-02-06T21:14:03.289Z,54.10
2023-02-06T21:17:28.815Z,33.30
2023-02-06T21:21:11.631Z,47.80
2023-02-06T21:24:46.347Z,35.50
2023-02-06T21:28:17.678Z,33.60
2023-02-06T21:31:48.611Z,33.50
2023-02-06T21:35:16.537Z,34.80
2023-02-06T21:39:03.930Z,32.00
2023-02-06T21:42:13.439Z,38.40
2023-02-06T21:45:40.173Z,44.80
2023-02-06T21:49:24.219Z,32.60
2023-02-06T21:52:42.863Z,43.20
2023-02-06T21:56:10.408Z,43.30
2023-02-06T21:59:34.683Z,51.80
2023-02-06T22:02:59.947Z,53.90
2023-02-06T22:12:51.153Z,48.30
2023-02-06T22:16:15.439Z,39.80
2023-02-06T22:19:40.491Z,47.50
2023-02-06T22:23:08.037Z,52.20
2023-02-06T22:26:47.314Z,53.80
2023-02-06T22:30:12.979Z,39.90
2023-02-06T22:34:05.553Z,43.50
2023-02-06T22:37:50.922Z,36.80
2023-02-06T22:41:37.141Z,43.40
2023-02-06T22:45:03.611Z,56.40
2023-02-06T22:48:23.085Z,58.30
2023-02-06T22:51:46.311Z,61.50
2023-02-06T22:55:09.568Z,71.00
2023-02-06T22:58:34.926Z,75.20
2023-02-06T23:02:17.930Z,61.70
2023-02-06T23:17:49.866Z,37.80
2023-02-06T23:21:23.871Z,46.00
2023-02-06T23:24:36.822Z,61.40
2023-02-06T23:28:00.833Z,56.90
2023-02-06T23:31:44.620Z,54.40
2023-02-06T23:35:08.010Z,59.70
2023-02-06T23:38:31.148Z,54.70
2023-02-06T23:41:54.323Z,55.50
2023-02-06T23:45:17.673Z,53.30
2023-02-06T23:48:35.451Z,43.60
2023-02-06T23:52:11.875Z,61.00
